Estación Meteorológica Peña el Pijo (Robertgarden) [ 01/30/23 14:55:21 CET ]

Fecha Hora Presion(HPa) Temp (°C) Humedad % Rocio (°C) Viento ( m/s) Direccion Lluvia 1Hora(mm) Lluvia 24H(mm) LLuvia Total(mm)
2010-Feb-02 01:01:15 1013.500 -2.5 85 -4.7         69.41
2010-Feb-02 02:04:22 1013.300 -3.0 86 -5.0         69.41
2010-Feb-02 03:01:14 1012.900 -3.2 86 -5.2         69.41
2010-Feb-02 04:01:13 1012.900 -3.7 87 -5.6         69.41
2010-Feb-02 05:01:11 1012.800 -4.7 87 -6.5         69.41
2010-Feb-02 06:01:12 1012.900 -4.5 87 -6.3         69.41
2010-Feb-02 07:01:14 1012.900 -5.1 88 -6.8         69.41
2010-Feb-02 08:01:13 1013.000 -5.2 88 -6.9         69.41
2010-Feb-02 09:01:10 1013.400 -4.8 88 -6.5         69.41
2010-Feb-02 10:01:12 1013.700 -0.2 86 -2.2         69.41
2010-Feb-02 11:01:18 1013.600 4.6 72 -0.0         69.41
2010-Feb-02 12:01:12 1013.300 8.8 53 -0.3         69.41
2010-Feb-02 13:01:12 1012.700 12.7 46 1.3         69.41
2010-Feb-02 14:01:14 1011.900 12.6 43 0.3         69.41
2010-Feb-02 15:01:16 1011.000 12.8 43 0.5 2.4 NNE     69.41
2010-Feb-02 16:01:14 1011.000 12.3 46 0.9         69.41
2010-Feb-02 17:01:17 1011.300 9.9 52 0.5         69.41
2010-Feb-02 18:01:14 1011.600 7.3 63 0.7         69.41
2010-Feb-02 19:01:15 1012.100 4.4 72 -0.2         69.41
2010-Feb-02 20:01:16 1012.000 1.8 78 -1.7         69.41
2010-Feb-02 21:01:13 1012.000 0.5 82 -2.2         69.41
2010-Feb-02 22:01:17 1012.100 -0.7 84 -3.1         69.41
2010-Feb-02 23:01:12 1012.400 -1.7 86 -3.7         69.41

Temperatura Máxima:12°    Temperatura Mínima:-5°
Presión Máxima:1013.700 Hpa    Presión Mínima:1011.000 Hpa


Volver